Time;durP1;ratioP1;P1;durP2;ratioP2;P2;SDS_P1;SDS_P2;PMS_P1;PMS_P2;Temp;Humidity;BMP_temperature;BMP_pressure;BME280_temperature;BME280_humidity;BME280_pressure;Samples;Min_cycle;Max_cycle;Signal;HPM_P1;HPM_P2
2021/07/14 00:00:43;;;;;;;13.10;3.28;;;19.40;99.90;;;;;;5032149;28;20060;-68
2021/07/14 00:03:47;;;;;;;23.85;3.60;;;19.50;99.90;;;;;;5032333;28;20053;-68
2021/07/14 00:06:52;;;;;;;19.90;4.75;;;19.50;99.90;;;;;;5043992;28;20056;-68
2021/07/14 00:09:56;;;;;;;23.50;4.38;;;19.30;99.90;;;;;;5052699;28;20491;-68
2021/07/14 00:22:55;;;;;;;23.48;4.75;;;19.20;99.90;;;;;;5058406;28;20055;-68
2021/07/14 00:25:59;;;;;;;25.73;4.43;;;19.10;99.90;;;;;;5052335;28;20522;-68
2021/07/14 00:29:05;;;;;;;20.75;4.07;;;19.20;99.90;;;;;;5050530;28;20426;-66
2021/07/14 00:32:09;;;;;;;21.15;3.72;;;19.30;99.90;;;;;;5031552;28;20091;-67
2021/07/14 00:35:14;;;;;;;17.98;4.53;;;19.30;99.90;;;;;;5032249;28;20041;-67
2021/07/14 00:38:18;;;;;;;19.60;3.75;;;19.30;99.90;;;;;;5032210;28;20044;-67
2021/07/14 00:41:22;;;;;;;23.17;3.90;;;19.20;99.90;;;;;;5031224;28;20044;-68
2021/07/14 00:44:28;;;;;;;15.95;3.75;;;19.10;99.90;;;;;;5032149;28;20044;-68
2021/07/14 00:47:34;;;;;;;21.17;4.13;;;19.00;99.90;;;;;;5039690;28;20044;-67
2021/07/14 00:50:40;;;;;;;14.55;3.75;;;18.90;99.90;;;;;;5050710;28;20060;-67
2021/07/14 00:53:44;;;;;;;24.00;4.55;;;18.90;99.90;;;;;;5050783;28;20052;-68
2021/07/14 00:56:50;;;;;;;20.95;4.70;;;18.80;99.90;;;;;;5051913;28;20056;-67
2021/07/14 00:59:54;;;;;;;15.40;4.18;;;18.80;99.90;;;;;;5051909;28;20052;-68
2021/07/14 01:02:59;;;;;;;17.17;4.20;;;18.80;99.90;;;;;;5052042;28;20211;-68
2021/07/14 01:06:05;;;;;;;22.88;4.43;;;18.70;99.90;;;;;;5051574;28;20048;-68
2021/07/14 01:09:11;;;;;;;19.08;4.28;;;18.80;99.90;;;;;;5051691;28;20056;-68
2021/07/14 01:12:20;;;;;;;26.60;4.68;;;18.80;99.90;;;;;;5050720;28;20047;-67
2021/07/14 01:15:27;;;;;;;18.10;4.07;;;18.90;99.90;;;;;;5051221;28;20044;-68
2021/07/14 01:19:06;;;;;;;27.45;4.85;;;19.10;99.90;;;;;;5051203;28;20044;-67
2021/07/14 01:22:51;;;;;;;18.08;3.90;;;19.10;99.90;;;;;;5050248;28;20047;-67
2021/07/14 01:26:43;;;;;;;25.85;4.32;;;18.90;99.90;;;;;;5051108;28;20690;-67
2021/07/14 01:29:56;;;;;;;24.35;4.85;;;18.80;99.90;;;;;;5029797;28;20048;-67
2021/07/14 01:33:04;;;;;;;23.58;4.05;;;18.90;99.90;;;;;;5050729;28;20108;-68
2021/07/14 01:36:13;;;;;;;23.60;4.55;;;18.90;99.90;;;;;;5050906;28;20126;-67
2021/07/14 01:39:19;;;;;;;23.35;4.22;;;19.00;99.90;;;;;;5050936;28;20040;-68
2021/07/14 01:42:27;;;;;;;16.75;4.05;;;19.00;99.90;;;;;;5050198;28;20048;-67
2021/07/14 01:45:34;;;;;;;14.80;3.92;;;18.90;99.90;;;;;;5050830;28;20514;-67
2021/07/14 01:48:42;;;;;;;21.83;3.85;;;18.90;99.90;;;;;;5050635;28;20396;-67
2021/07/14 01:52:00;;;;;;;25.67;4.63;;;18.90;99.90;;;;;;5050182;28;20625;-68
2021/07/14 01:55:07;;;;;;;15.27;3.70;;;19.00;99.90;;;;;;5049769;28;20040;-68
2021/07/14 01:58:13;;;;;;;22.58;4.00;;;18.90;99.90;;;;;;5050930;28;20044;-68
2021/07/14 02:01:19;;;;;;;17.90;3.45;;;19.00;99.90;;;;;;5050338;28;20490;-67
2021/07/14 02:07:36;;;;;;;25.88;5.40;;;19.00;99.90;;;;;;5047844;28;20059;-68
2021/07/14 02:10:41;;;;;;;18.75;5.03;;;19.10;99.90;;;;;;5049477;28;20044;-68
2021/07/14 02:13:45;;;;;;;19.80;4.43;;;19.10;99.90;;;;;;5049967;28;20050;-68
2021/07/14 02:16:51;;;;;;;22.35;4.75;;;19.00;99.90;;;;;;5049810;28;20048;-67
2021/07/14 02:20:17;;;;;;;23.02;4.85;;;18.80;99.90;;;;;;5045700;28;20043;-68
2021/07/14 02:23:21;;;;;;;25.15;5.20;;;18.70;99.90;;;;;;5044379;28;20052;-69
2021/07/14 02:26:27;;;;;;;19.50;4.22;;;18.70;99.90;;;;;;5049756;28;20048;-68
2021/07/14 02:29:34;;;;;;;21.85;4.32;;;18.60;99.90;;;;;;5049846;28;20056;-67
2021/07/14 02:32:38;;;;;;;29.20;4.18;;;18.50;99.90;;;;;;5049598;28;20048;-67
2021/07/14 02:35:45;;;;;;;27.83;4.97;;;18.50;99.90;;;;;;5049760;28;20036;-68
2021/07/14 02:38:56;;;;;;;16.08;4.40;;;18.50;99.90;;;;;;5046969;28;20052;-68
2021/07/14 02:42:09;;;;;;;20.35;4.18;;;18.50;99.90;;;;;;5046331;28;20048;-67
2021/07/14 02:45:13;;;;;;;20.55;3.53;;;18.40;99.90;;;;;;5049487;28;20057;-67
2021/07/14 02:48:19;;;;;;;14.93;3.53;;;18.30;99.90;;;;;;5049973;28;20056;-67
2021/07/14 02:51:28;;;;;;;25.63;4.80;;;18.30;99.90;;;;;;5049128;28;20380;-68
2021/07/14 02:54:33;;;;;;;21.77;4.10;;;18.30;99.90;;;;;;5053300;28;20048;-67
2021/07/14 02:57:39;;;;;;;19.92;4.03;;;18.40;99.90;;;;;;5053450;28;20040;-68
2021/07/14 03:00:44;;;;;;;15.25;3.38;;;18.40;99.90;;;;;;5052734;28;20052;-68
2021/07/14 03:03:51;;;;;;;22.67;3.28;;;18.30;99.90;;;;;;5053410;28;20048;-67
2021/07/14 03:06:56;;;;;;;26.25;4.18;;;18.20;99.90;;;;;;5053556;28;20056;-69
2021/07/14 03:10:01;;;;;;;19.60;3.45;;;18.20;99.90;;;;;;5052157;28;20039;-68
2021/07/14 03:13:07;;;;;;;15.70;3.45;;;18.20;99.90;;;;;;5053555;28;20040;-68
2021/07/14 03:16:12;;;;;;;26.90;5.65;;;18.20;99.90;;;;;;5053509;28;20048;-68
2021/07/14 03:19:17;;;;;;;21.08;4.53;;;18.00;99.90;;;;;;5053943;28;20056;-68
2021/07/14 03:22:22;;;;;;;23.42;4.03;;;18.10;99.90;;;;;;5053126;28;20063;-68
2021/07/14 03:25:27;;;;;;;20.55;3.78;;;18.10;99.90;;;;;;5053381;28;20426;-68
2021/07/14 03:28:31;;;;;;;16.98;4.03;;;18.20;99.90;;;;;;5053595;28;20064;-68
2021/07/14 03:31:37;;;;;;;17.02;3.10;;;18.20;99.90;;;;;;5053129;28;20047;-68
2021/07/14 03:34:41;;;;;;;19.42;3.92;;;18.20;99.90;;;;;;5053448;28;20483;-68
2021/07/14 03:37:48;;;;;;;20.17;3.50;;;18.20;99.90;;;;;;5053528;28;20052;-68
2021/07/14 03:40:53;;;;;;;26.17;3.88;;;18.20;99.90;;;;;;5052533;28;20044;-68
2021/07/14 03:43:58;;;;;;;23.40;3.63;;;18.20;99.90;;;;;;5053029;28;20056;-68
2021/07/14 03:47:03;;;;;;;29.35;3.67;;;18.20;99.90;;;;;;5052880;28;20060;-68
2021/07/14 03:50:09;;;;;;;20.08;4.03;;;18.20;99.90;;;;;;5052158;28;20495;-68
2021/07/14 03:53:17;;;;;;;18.45;3.53;;;18.20;99.90;;;;;;5052775;28;20056;-68
2021/07/14 03:56:23;;;;;;;19.45;4.10;;;18.20;99.90;;;;;;5052682;28;20832;-68
2021/07/14 03:59:27;;;;;;;23.90;4.05;;;18.20;99.90;;;;;;5052867;28;20494;-68
2021/07/14 04:02:33;;;;;;;22.45;3.65;;;18.20;99.90;;;;;;5052652;28;20031;-68
2021/07/14 04:05:46;;;;;;;13.10;3.40;;;18.10;99.90;;;;;;5052191;28;20044;-67
2021/07/14 04:09:09;;;;;;;23.15;3.75;;;18.20;99.90;;;;;;5050949;28;20044;-68
2021/07/14 04:12:14;;;;;;;16.77;3.83;;;18.30;99.90;;;;;;5051684;28;20048;-67
2021/07/14 04:15:18;;;;;;;19.65;4.07;;;18.30;99.90;;;;;;5052170;28;20383;-67
2021/07/14 04:18:23;;;;;;;20.23;3.97;;;18.50;99.90;;;;;;5052318;28;20048;-68
2021/07/14 04:21:28;;;;;;;19.77;3.60;;;18.60;99.90;;;;;;5051602;28;20043;-68
2021/07/14 04:24:33;;;;;;;19.17;4.03;;;18.60;99.90;;;;;;5051974;28;20047;-69
2021/07/14 04:27:39;;;;;;;21.52;3.67;;;18.70;99.90;;;;;;5052066;28;20043;-68
2021/07/14 04:30:42;;;;;;;17.85;4.20;;;18.70;99.90;;;;;;5050675;28;20052;-68
2021/07/14 04:33:48;;;;;;;19.30;3.67;;;18.70;99.90;;;;;;5051465;28;20047;-69
2021/07/14 04:36:52;;;;;;;18.85;3.55;;;18.70;99.90;;;;;;5051381;28;20044;-68
2021/07/14 04:39:57;;;;;;;25.85;3.67;;;18.70;99.90;;;;;;5051375;28;20040;-67
2021/07/14 04:43:00;;;;;;;19.65;4.28;;;18.80;99.90;;;;;;5051309;28;20056;-67
2021/07/14 04:46:05;;;;;;;14.88;3.17;;;18.90;99.90;;;;;;5050450;28;20043;-67
2021/07/14 04:49:11;;;;;;;18.55;3.33;;;19.00;99.90;;;;;;5047922;28;20056;-68
2021/07/14 04:52:15;;;;;;;14.50;3.70;;;19.10;99.90;;;;;;5049830;28;20403;-69
2021/07/14 04:55:20;;;;;;;20.33;3.67;;;19.10;99.90;;;;;;5050697;28;20040;-68
2021/07/14 04:58:24;;;;;;;21.80;3.60;;;19.20;99.90;;;;;;5051096;28;20040;-68
2021/07/14 05:01:30;;;;;;;16.15;3.50;;;19.20;99.90;;;;;;5041103;28;20036;-68
2021/07/14 05:04:36;;;;;;;15.40;3.47;;;19.20;99.90;;;;;;5043876;28;20044;-68
2021/07/14 05:07:41;;;;;;;15.93;3.58;;;19.20;99.90;;;;;;5039670;28;20036;-68
2021/07/14 05:10:48;;;;;;;20.23;3.92;;;19.30;99.90;;;;;;5044930;28;20490;-68
2021/07/14 05:13:52;;;;;;;14.45;3.80;;;19.40;99.90;;;;;;5041900;28;20371;-67
2021/07/14 05:16:57;;;;;;;15.60;3.47;;;19.40;99.90;;;;;;5050634;28;20039;-69
2021/07/14 05:20:01;;;;;;;17.27;3.80;;;19.50;99.90;;;;;;5035824;28;20507;-68
2021/07/14 05:23:07;;;;;;;13.80;2.80;;;19.60;99.90;;;;;;5050500;28;20052;-67
2021/07/14 05:26:12;;;;;;;19.80;3.25;;;19.70;99.90;;;;;;5035025;28;20045;-67
2021/07/14 05:29:16;;;;;;;12.57;2.40;;;19.80;99.90;;;;;;5041635;28;20396;-68
2021/07/14 05:32:21;;;;;;;22.40;2.97;;;19.90;99.90;;;;;;5030501;28;20044;-67
2021/07/14 05:35:26;;;;;;;16.27;3.60;;;19.80;99.90;;;;;;5030839;28;20044;-68
2021/07/14 05:38:30;;;;;;;19.60;3.05;;;19.70;99.90;;;;;;5052537;28;20044;-67
2021/07/14 05:41:36;;;;;;;21.13;3.40;;;19.70;99.90;;;;;;5045764;28;20048;-68
2021/07/14 05:44:40;;;;;;;14.38;3.20;;;19.60;99.90;;;;;;5036435;28;20047;-67
2021/07/14 05:47:47;;;;;;;15.32;3.40;;;19.70;99.90;;;;;;5040379;28;20036;-68
2021/07/14 05:50:53;;;;;;;12.60;2.28;;;19.80;99.90;;;;;;5047524;28;20048;-67
2021/07/14 05:53:59;;;;;;;14.27;2.70;;;20.00;99.90;;;;;;5045970;28;20044;-67
2021/07/14 05:57:04;;;;;;;17.63;3.00;;;20.30;99.90;;;;;;5049208;28;20375;-68
2021/07/14 06:00:09;;;;;;;15.07;3.70;;;20.70;99.90;;;;;;5049294;28;20040;-68
2021/07/14 06:03:13;;;;;;;19.65;3.00;;;21.00;99.90;;;;;;5039881;28;20052;-67
2021/07/14 06:06:17;;;;;;;13.18;3.10;;;21.40;99.90;;;;;;5037855;28;20148;-67
2021/07/14 06:09:21;;;;;;;17.27;2.60;;;21.60;99.90;;;;;;5041543;28;20044;-67
2021/07/14 06:12:25;;;;;;;12.43;2.42;;;22.00;99.90;;;;;;5049687;28;20052;-67
2021/07/14 06:15:29;;;;;;;19.55;3.92;;;22.40;99.90;;;;;;5050240;28;20044;-68
2021/07/14 06:18:33;;;;;;;14.05;3.13;;;22.30;99.90;;;;;;5049695;28;20520;-68
2021/07/14 06:21:38;;;;;;;15.95;2.72;;;22.10;99.90;;;;;;5037102;28;20036;-67
2021/07/14 06:24:43;;;;;;;10.05;2.88;;;21.80;99.90;;;;;;5050053;28;20605;-68
2021/07/14 06:27:47;;;;;;;14.52;2.80;;;21.60;99.90;;;;;;5052987;28;20048;-68
2021/07/14 06:30:52;;;;;;;19.48;3.58;;;21.40;99.90;;;;;;5050273;28;20040;-67
2021/07/14 06:33:56;;;;;;;18.17;2.90;;;21.40;99.90;;;;;;5052591;28;20511;-68
2021/07/14 06:37:00;;;;;;;26.58;3.53;;;21.40;99.90;;;;;;5053374;28;20040;-68
2021/07/14 06:40:06;;;;;;;14.82;3.00;;;21.40;99.90;;;;;;5033485;28;20040;-68
2021/07/14 06:43:15;;;;;;;19.75;3.30;;;21.40;99.90;;;;;;5048598;28;20044;-68
2021/07/14 06:46:20;;;;;;;15.70;3.63;;;21.30;99.90;;;;;;5054649;28;20068;-67
2021/07/14 06:49:24;;;;;;;15.38;2.80;;;21.30;99.90;;;;;;5052091;28;20111;-68
2021/07/14 06:52:28;;;;;;;21.35;3.60;;;21.10;99.90;;;;;;5043439;28;20060;-67
2021/07/14 06:55:33;;;;;;;18.23;3.47;;;21.30;99.90;;;;;;5045611;28;20040;-68
2021/07/14 06:58:40;;;;;;;18.35;3.10;;;20.90;99.90;;;;;;5033838;28;20045;-68
2021/07/14 07:01:43;;;;;;;20.83;3.22;;;21.00;99.90;;;;;;5046550;28;20044;-68
2021/07/14 07:04:48;;;;;;;18.15;3.17;;;21.10;99.90;;;;;;5041121;28;20372;-68
2021/07/14 07:07:52;;;;;;;15.57;2.88;;;21.10;99.90;;;;;;5038888;28;20056;-68
2021/07/14 07:10:56;;;;;;;16.60;3.33;;;21.40;99.90;;;;;;5040539;28;20047;-68
2021/07/14 07:14:00;;;;;;;13.30;2.80;;;22.30;99.90;;;;;;5053036;28;20059;-67
2021/07/14 07:17:06;;;;;;;20.40;3.20;;;22.40;99.90;;;;;;5047322;28;20396;-67
2021/07/14 07:20:14;;;;;;;12.98;2.47;;;22.40;99.90;;;;;;5042129;28;20049;-67
2021/07/14 07:23:18;;;;;;;16.00;2.55;;;23.70;99.90;;;;;;5037708;28;20056;-67
2021/07/14 07:26:22;;;;;;;17.33;3.28;;;24.30;99.80;;;;;;5045390;28;20044;-67
2021/07/14 07:29:26;;;;;;;10.48;2.45;;;24.60;99.40;;;;;;5045593;28;20048;-68
2021/07/14 07:32:30;;;;;;;10.63;2.90;;;24.10;98.90;;;;;;5052249;28;20060;-67
2021/07/14 07:35:34;;;;;;;14.10;2.25;;;23.40;99.90;;;;;;5052907;28;20044;-68
2021/07/14 07:38:40;;;;;;;14.43;2.88;;;23.70;99.40;;;;;;5052222;28;20052;-67
2021/07/14 07:41:44;;;;;;;12.38;2.28;;;24.80;98.70;;;;;;5052398;28;20044;-68
2021/07/14 07:44:48;;;;;;;13.82;2.88;;;25.90;96.50;;;;;;5052628;28;20044;-68
2021/07/14 07:47:52;;;;;;;15.30;2.58;;;25.80;96.50;;;;;;5052344;28;20052;-68
2021/07/14 07:50:57;;;;;;;13.98;3.03;;;25.10;97.10;;;;;;5047462;28;20060;-67
2021/07/14 07:54:03;;;;;;;10.68;2.83;;;25.00;96.60;;;;;;5049901;28;20632;-67
2021/07/14 07:57:08;;;;;;;11.23;2.17;;;24.90;96.40;;;;;;5042614;28;20048;-67
2021/07/14 08:00:19;;;;;;;10.15;2.25;;;25.50;95.70;;;;;;5051699;28;20047;-68
2021/07/14 08:03:24;;;;;;;11.48;2.53;;;24.90;96.30;;;;;;5051281;28;20040;-67
2021/07/14 08:06:28;;;;;;;10.48;2.25;;;26.70;94.80;;;;;;5045181;28;20043;-67
2021/07/14 08:09:32;;;;;;;17.48;2.70;;;27.80;93.50;;;;;;5051189;28;20040;-67
2021/07/14 08:12:37;;;;;;;8.35;2.30;;;28.30;93.20;;;;;;5048193;28;20367;-68
2021/07/14 08:15:41;;;;;;;9.18;2.00;;;27.60;93.00;;;;;;5049637;28;20048;-68
2021/07/14 08:18:46;;;;;;;14.57;3.63;;;26.40;93.70;;;;;;5051519;28;20040;-67
2021/07/14 08:21:50;;;;;;;11.32;2.78;;;25.10;95.00;;;;;;5041292;28;20045;-68
2021/07/14 08:24:54;;;;;;;12.13;4.00;;;24.90;96.00;;;;;;5046890;28;20047;-68
2021/07/14 08:27:58;;;;;;;10.88;2.90;;;26.00;94.70;;;;;;5049233;28;20048;-68
2021/07/14 08:31:18;;;;;;;15.27;3.20;;;25.00;95.60;;;;;;5043738;28;20040;-67
2021/07/14 08:34:23;;;;;;;11.52;2.53;;;24.00;96.90;;;;;;5048403;28;20039;-67
2021/07/14 08:37:28;;;;;;;12.48;2.85;;;24.00;98.40;;;;;;5050088;28;20395;-68
2021/07/14 08:40:32;;;;;;;13.30;2.50;;;24.50;97.70;;;;;;5060688;28;20040;-67
2021/07/14 08:43:41;;;;;;;17.00;3.50;;;24.60;98.60;;;;;;5051038;28;20044;-67
2021/07/14 08:46:45;;;;;;;12.10;2.95;;;24.20;99.70;;;;;;5050965;28;20043;-68
2021/07/14 08:49:51;;;;;;;7.53;2.20;;;24.50;99.90;;;;;;5049888;28;20043;-68
2021/07/14 08:52:56;;;;;;;14.40;3.17;;;24.20;99.90;;;;;;5050764;28;20043;-68
2021/07/14 08:56:02;;;;;;;10.40;2.28;;;25.60;99.90;;;;;;5051564;28;20048;-68
2021/07/14 08:59:06;;;;;;;8.90;2.22;;;28.60;97.30;;;;;;5050331;28;20056;-68
2021/07/14 09:02:10;;;;;;;13.95;2.80;;;28.10;95.40;;;;;;5050653;28;20052;-67
2021/07/14 09:05:14;;;;;;;11.50;2.58;;;26.90;96.10;;;;;;5051337;28;20044;-67
2021/07/14 09:08:19;;;;;;;16.17;2.53;;;26.00;97.20;;;;;;5050876;28;20399;-67
2021/07/14 09:11:23;;;;;;;13.15;2.95;;;25.40;98.40;;;;;;5050374;28;20044;-67
2021/07/14 09:14:34;;;;;;;13.40;2.85;;;25.50;98.50;;;;;;5037334;28;20052;-67
2021/07/14 09:17:43;;;;;;;;;;;26.90;97.20;;;;;;5036958;28;20033;-67
2021/07/14 09:20:47;;;;;;;8.18;2.28;;;29.80;94.00;;;;;;5049638;28;19916;-68
2021/07/14 09:23:51;;;;;;;10.30;2.53;;;31.90;91.70;;;;;;5041470;28;20052;-67
2021/07/14 09:26:56;;;;;;;9.90;2.30;;;31.80;90.30;;;;;;5050807;28;20621;-68
2021/07/14 09:30:15;;;;;;;12.43;2.45;;;30.90;90.50;;;;;;5049854;28;20372;-67
2021/07/14 09:33:20;;;;;;;8.52;2.42;;;30.10;90.90;;;;;;5050812;28;20052;-68
2021/07/14 09:36:33;;;;;;;14.15;2.30;;;32.10;88.80;;;;;;5042018;28;20047;-68
2021/07/14 09:39:39;;;;;;;9.18;2.50;;;34.60;84.80;;;;;;5050020;28;20383;-68
2021/07/14 09:42:56;;;;;;;7.25;2.40;;;33.60;82.40;;;;;;5050979;28;20044;-68
2021/07/14 09:46:04;;;;;;;10.20;2.40;;;31.60;84.60;;;;;;5050432;28;20044;-67
2021/07/14 09:49:13;;;;;;;8.48;2.17;;;30.90;86.10;;;;;;5049793;28;20048;-68
2021/07/14 09:52:21;;;;;;;8.68;1.90;;;32.30;84.10;;;;;;5038457;28;20043;-67
2021/07/14 09:55:33;;;;;;;14.75;2.35;;;31.20;83.30;;;;;;5046651;28;20487;-67
2021/07/14 09:58:36;;;;;;;9.57;2.03;;;29.70;87.50;;;;;;5043155;28;20040;-67
2021/07/14 10:01:45;;;;;;;7.68;2.15;;;28.90;88.30;;;;;;5049224;28;20483;-68
2021/07/14 10:04:49;;;;;;;14.45;2.42;;;28.30;88.60;;;;;;5050689;28;20610;-69
2021/07/14 10:08:22;;;;;;;10.90;2.40;;;26.50;90.40;;;;;;5050239;28;20052;-67
2021/07/14 10:11:28;;;;;;;11.98;2.10;;;25.50;92.60;;;;;;5049975;28;20371;-66
2021/07/14 10:14:32;;;;;;;10.32;2.08;;;25.10;93.10;;;;;;5050476;28;20048;-68
2021/07/14 10:17:42;;;;;;;16.13;2.50;;;25.10;93.80;;;;;;5050322;28;20044;-68
2021/07/14 10:20:46;;;;;;;11.35;2.30;;;25.50;93.60;;;;;;5047160;28;20036;-67
2021/07/14 10:23:50;;;;;;;11.82;2.80;;;24.90;94.30;;;;;;5049379;28;20040;-66
2021/07/14 10:26:56;;;;;;;12.38;2.60;;;24.00;94.90;;;;;;5050600;28;20040;-67
2021/07/14 10:30:01;;;;;;;10.95;2.08;;;23.80;96.30;;;;;;5050217;28;20048;-67
2021/07/14 10:33:07;;;;;;;9.07;1.80;;;24.60;94.90;;;;;;5050324;28;20383;-67
2021/07/14 10:36:14;;;;;;;12.68;2.00;;;28.00;93.60;;;;;;5050521;28;20044;-67
2021/07/14 10:39:21;;;;;;;8.32;1.92;;;29.40;88.10;;;;;;5050260;28;20048;-68
2021/07/14 10:42:27;;;;;;;6.65;1.75;;;30.90;86.20;;;;;;5049717;28;20139;-67
2021/07/14 10:45:34;;;;;;;7.88;1.50;;;32.10;82.40;;;;;;5050079;28;20048;-68
2021/07/14 10:48:41;;;;;;;17.63;2.58;;;31.30;82.70;;;;;;5045862;28;20040;-68
2021/07/14 10:51:45;;;;;;;9.93;2.03;;;30.10;88.50;;;;;;5048607;28;20043;-68
2021/07/14 10:54:52;;;;;;;8.50;2.03;;;29.50;90.00;;;;;;5043948;28;20040;-68
2021/07/14 10:57:57;;;;;;;10.43;2.28;;;28.60;90.40;;;;;;5050328;28;20490;-67
2021/07/14 11:01:02;;;;;;;8.77;1.73;;;28.60;91.40;;;;;;5047787;28;20036;-66
2021/07/14 11:04:32;;;;;;;10.02;1.80;;;28.50;91.40;;;;;;5030220;28;20052;-68
2021/07/14 11:07:40;;;;;;;8.65;2.30;;;28.30;91.40;;;;;;5046839;28;20403;-68
2021/07/14 11:10:44;;;;;;;12.55;2.58;;;27.70;92.20;;;;;;5048882;28;20395;-67
2021/07/14 11:14:05;;;;;;;21.88;3.67;;;27.10;93.30;;;;;;5050769;28;20052;-67
2021/07/14 11:17:11;;;;;;;10.05;1.88;;;26.30;96.70;;;;;;5053406;28;20044;-67
2021/07/14 11:20:15;;;;;;;8.23;2.13;;;26.30;98.70;;;;;;5052853;28;20051;-67
2021/07/14 11:23:22;;;;;;;7.75;1.85;;;27.20;96.60;;;;;;5033769;28;20053;-66
2021/07/14 11:26:27;;;;;;;10.07;2.25;;;28.10;96.30;;;;;;5037423;28;20470;-66
2021/07/14 11:29:38;;;;;;;8.93;2.17;;;28.60;94.30;;;;;;5053011;28;20060;-66
2021/07/14 11:32:43;;;;;;;9.32;1.70;;;29.80;96.20;;;;;;5048808;28;20119;-67
2021/07/14 11:36:06;;;;;;;9.43;2.15;;;31.00;93.00;;;;;;5050800;28;20051;-67
2021/07/14 11:39:28;;;;;;;6.07;2.15;;;32.80;88.60;;;;;;5040765;28;20051;-68
2021/07/14 11:42:45;;;;;;;;;;;34.30;84.30;;;;;;5051167;28;20036;-68
2021/07/14 11:46:17;;;;;;;6.05;1.40;;;32.00;84.00;;;;;;5048641;28;19913;-68
2021/07/14 11:49:22;;;;;;;7.10;1.80;;;33.10;83.70;;;;;;5045758;28;20052;-67
2021/07/14 11:52:44;;;;;;;9.65;2.45;;;31.70;85.90;;;;;;5036027;28;20044;-68
2021/07/14 11:56:04;;;;;;;4.82;1.52;;;32.60;84.20;;;;;;5045055;28;20806;-68
2021/07/14 11:59:10;;;;;;;8.77;2.33;;;33.20;86.10;;;;;;5046681;28;20043;-67
2021/07/14 12:02:20;;;;;;;7.10;1.70;;;34.40;83.10;;;;;;5045952;28;20044;-67
2021/07/14 12:05:30;;;;;;;7.17;2.03;;;35.00;81.40;;;;;;5047738;28;20036;-67
2021/07/14 12:08:38;;;;;;;7.15;2.05;;;36.00;79.90;;;;;;5042343;28;20274;-68
2021/07/14 12:11:43;;;;;;;7.88;2.10;;;36.70;79.40;;;;;;5043930;28;20040;-67
2021/07/14 12:14:51;;;;;;;9.57;1.90;;;37.00;76.00;;;;;;5044090;28;20044;-66
2021/07/14 12:18:06;;;;;;;7.38;1.70;;;36.70;76.00;;;;;;5045663;28;20040;-66
2021/07/14 12:21:11;;;;;;;8.85;2.22;;;35.90;74.70;;;;;;5051122;28;20056;-67
2021/07/14 12:24:31;;;;;;;8.73;1.70;;;35.70;74.60;;;;;;5051374;28;20036;-66
2021/07/14 12:27:39;;;;;;;7.47;2.00;;;35.50;74.30;;;;;;5051976;28;20044;-66
2021/07/14 12:30:47;;;;;;;6.70;1.55;;;35.00;77.00;;;;;;5051055;28;20036;-67
2021/07/14 12:33:53;;;;;;;7.85;1.45;;;35.20;76.30;;;;;;5050302;28;20487;-66
2021/07/14 12:37:00;;;;;;;5.13;1.50;;;34.80;75.40;;;;;;5048085;28;20041;-67
2021/07/14 12:40:04;;;;;;;7.90;1.70;;;34.90;75.70;;;;;;5043812;28;20040;-65
2021/07/14 12:43:17;;;;;;;6.03;1.83;;;33.40;76.10;;;;;;5040314;28;21399;-67
2021/07/14 12:46:24;;;;;;;6.00;1.55;;;31.30;75.50;;;;;;5044195;28;20045;-66
2021/07/14 12:49:28;;;;;;;6.32;1.55;;;31.70;74.40;;;;;;5050189;28;20053;-66
2021/07/14 12:52:32;;;;;;;6.55;1.45;;;30.40;75.20;;;;;;5050871;28;20032;-67
2021/07/14 12:55:38;;;;;;;5.43;1.38;;;31.20;73.50;;;;;;5049411;28;20040;-68
2021/07/14 12:59:02;;;;;;;4.70;1.70;;;31.40;72.60;;;;;;5056949;28;20040;-67
2021/07/14 13:02:08;;;;;;;4.68;1.30;;;28.80;74.90;;;;;;5043532;28;20047;-67
2021/07/14 13:05:16;;;;;;;5.28;1.27;;;28.10;78.10;;;;;;5048643;28;20085;-66
2021/07/14 13:08:26;;;;;;;3.97;1.23;;;29.10;75.80;;;;;;5050619;28;20060;-68
2021/07/14 13:11:30;;;;;;;7.47;1.63;;;28.20;75.40;;;;;;5046515;28;20055;-69
2021/07/14 13:14:36;;;;;;;4.43;1.10;;;27.70;76.60;;;;;;5048114;28;20383;-67
2021/07/14 13:17:41;;;;;;;8.50;1.20;;;27.30;75.80;;;;;;5034813;28;20502;-66
2021/07/14 13:20:56;;;;;;;5.18;1.38;;;28.30;76.10;;;;;;5046322;28;20036;-65
2021/07/14 13:24:02;;;;;;;7.22;1.52;;;29.20;75.80;;;;;;5050500;28;20032;-67
2021/07/14 13:27:07;;;;;;;7.63;1.55;;;28.60;75.40;;;;;;5049711;28;20052;-67
2021/07/14 13:30:30;;;;;;;5.30;1.23;;;28.90;76.00;;;;;;5044081;28;20040;-67
2021/07/14 13:33:39;;;;;;;8.38;2.03;;;27.10;77.70;;;;;;5050047;28;20051;-67
2021/07/14 13:36:49;;;;;;;13.73;2.30;;;27.50;79.50;;;;;;5049403;28;20395;-68
2021/07/14 13:39:53;;;;;;;6.82;2.00;;;25.70;79.00;;;;;;5037486;28;20040;-65
2021/07/14 13:42:59;;;;;;;11.02;1.75;;;26.00;81.30;;;;;;5031386;28;20040;-66
2021/07/14 13:46:04;;;;;;;9.60;1.75;;;25.70;80.90;;;;;;5050593;28;20053;-66
2021/07/14 13:49:11;;;;;;;7.32;1.98;;;26.60;81.50;;;;;;5050564;28;20052;-65
2021/07/14 13:52:23;;;;;;;10.13;2.38;;;27.80;78.30;;;;;;5036601;28;20494;-66
2021/07/14 13:55:28;;;;;;;7.88;1.58;;;28.70;77.10;;;;;;5047838;28;20048;-65
2021/07/14 13:58:33;;;;;;;9.32;1.63;;;28.70;75.60;;;;;;5049142;28;20052;-65
2021/07/14 14:02:41;;;;;;;4.78;1.20;;;28.00;75.00;;;;;;5090808;27;20702;-47
2021/07/14 14:05:46;;;;;;;7.03;1.80;;;27.90;74.80;;;;;;5086639;28;20398;-48
2021/07/14 14:08:53;;;;;;;7.85;1.50;;;27.90;74.90;;;;;;5073199;28;20029;-51
2021/07/14 14:11:59;;;;;;;4.00;1.40;;;28.00;75.20;;;;;;5066736;28;20037;-48
2021/07/14 14:15:16;;;;;;;5.85;1.40;;;28.20;74.80;;;;;;5055728;28;20040;-48
2021/07/14 14:18:21;;;;;;;6.45;2.15;;;27.50;76.90;;;;;;5072813;28;20036;-47
2021/07/14 14:21:26;;;;;;;10.30;1.83;;;27.70;76.80;;;;;;5069824;28;20040;-48
2021/07/14 14:24:31;;;;;;;6.25;1.50;;;27.90;76.10;;;;;;5066748;28;20044;-48
2021/07/14 14:31:10;;;;;;;6.82;1.45;;;28.00;75.70;;;;;;5065010;28;20037;-48
2021/07/14 14:34:16;;;;;;;4.85;1.48;;;27.20;76.80;;;;;;5066630;28;20036;-49
2021/07/14 14:37:20;;;;;;;4.50;1.30;;;27.50;75.60;;;;;;5066605;28;20037;-47
2021/07/14 14:40:25;;;;;;;6.25;1.40;;;26.90;78.00;;;;;;5065028;28;20040;-48
2021/07/14 14:43:30;;;;;;;11.27;1.75;;;27.30;77.20;;;;;;5084530;28;20035;-49
2021/07/14 14:46:33;;;;;;;7.05;1.83;;;26.60;79.00;;;;;;5086633;28;20051;-48
2021/07/14 14:49:38;;;;;;;11.20;1.60;;;27.00;78.60;;;;;;5083242;28;20490;-47
2021/07/14 14:52:42;;;;;;;6.82;1.55;;;26.80;77.70;;;;;;5086164;28;20047;-48
2021/07/14 14:55:47;;;;;;;6.50;1.52;;;27.00;78.60;;;;;;5085871;28;20529;-49
2021/07/14 14:58:53;;;;;;;7.18;1.45;;;27.20;78.40;;;;;;5081323;28;20049;-48
2021/07/14 15:01:58;;;;;;;4.45;1.23;;;27.10;76.70;;;;;;5065327;28;20036;-48
2021/07/14 15:05:04;;;;;;;3.95;1.23;;;27.10;77.30;;;;;;5064789;28;20037;-47
2021/07/14 15:08:08;;;;;;;3.65;1.40;;;27.20;76.60;;;;;;5063596;28;20025;-48
2021/07/14 15:11:14;;;;;;;4.88;1.50;;;27.10;77.70;;;;;;5062771;28;20033;-50
2021/07/14 15:14:21;;;;;;;8.43;1.98;;;26.50;76.90;;;;;;5047925;28;20040;-48
2021/07/14 15:17:25;;;;;;;8.30;1.83;;;26.60;76.90;;;;;;5067416;28;20036;-47
2021/07/14 15:20:31;;;;;;;3.35;1.40;;;25.90;78.00;;;;;;5071822;28;20044;-48
2021/07/14 15:23:36;;;;;;;6.68;1.45;;;26.30;78.80;;;;;;5071701;28;20036;-50
2021/07/14 15:30:03;;;;;;;4.13;1.30;;;26.50;80.40;;;;;;5071988;28;20036;-48
2021/07/14 15:33:07;;;;;;;6.85;1.40;;;26.70;77.70;;;;;;5072048;28;20040;-48
2021/07/14 15:36:11;;;;;;;4.97;1.80;;;26.70;79.30;;;;;;5071950;28;20044;-50
2021/07/14 15:39:15;;;;;;;4.28;1.40;;;26.50;78.90;;;;;;5059993;28;20033;-48
2021/07/14 15:42:20;;;;;;;6.85;1.50;;;26.00;77.10;;;;;;5050838;28;20041;-48
2021/07/14 15:45:24;;;;;;;8.43;1.90;;;26.20;77.50;;;;;;5042559;28;20037;-48
2021/07/14 15:48:28;;;;;;;9.70;2.03;;;26.20;78.20;;;;;;5052603;28;20037;-47
2021/07/14 15:51:32;;;;;;;7.07;1.83;;;26.30;78.10;;;;;;5031303;28;20049;-48
2021/07/14 15:54:36;;;;;;;9.82;2.00;;;25.80;77.70;;;;;;5037876;28;20049;-49
2021/07/14 15:57:40;;;;;;;8.65;1.70;;;24.90;78.50;;;;;;5050866;28;20048;-48
2021/07/14 16:00:44;;;;;;;5.35;1.13;;;24.90;80.00;;;;;;5051211;28;20045;-48
2021/07/14 16:03:48;;;;;;;4.20;1.35;;;24.80;80.20;;;;;;5051649;28;20498;-49
2021/07/14 16:06:52;;;;;;;4.30;1.20;;;25.10;78.30;;;;;;5051819;28;20037;-50
2021/07/14 16:09:57;;;;;;;5.43;1.50;;;25.30;77.80;;;;;;5051229;28;20045;-53
2021/07/14 16:13:03;;;;;;;4.50;1.67;;;25.50;77.80;;;;;;5051357;28;20379;-52
2021/07/14 16:16:08;;;;;;;7.30;1.35;;;25.70;78.50;;;;;;5051135;28;20041;-49
2021/07/14 16:19:13;;;;;;;4.55;1.00;;;25.80;78.00;;;;;;5051263;28;20044;-49
2021/07/14 16:22:17;;;;;;;3.83;1.08;;;25.60;76.10;;;;;;5050869;28;20040;-49
2021/07/14 16:25:21;;;;;;;3.00;1.08;;;25.60;76.50;;;;;;5049919;28;20037;-48